createdAt,value
2022-09-10T00:05:36.423Z,1.52
2022-09-10T00:08:23.024Z,1.63
2022-09-10T00:11:04.375Z,1.70
2022-09-10T00:14:28.560Z,1.80
2022-09-10T00:17:53.592Z,1.50
2022-09-10T00:21:28.233Z,1.77
2022-09-10T00:24:44.164Z,1.45
2022-09-10T00:27:33.279Z,1.50
2022-09-10T00:31:20.412Z,1.63
2022-09-10T00:34:00.018Z,1.73
2022-09-10T00:37:26.508Z,1.70
2022-09-10T00:40:27.448Z,1.70
2022-09-10T00:43:36.061Z,1.80
2022-09-10T00:49:30.801Z,1.63
2022-09-10T00:52:17.070Z,1.73
2022-09-10T00:55:26.831Z,1.60
2022-09-10T01:05:32.375Z,1.85
2022-09-10T01:09:05.130Z,1.90
2022-09-10T01:24:23.807Z,1.70
2022-09-10T01:32:09.057Z,1.77
2022-09-10T01:35:53.015Z,1.70
2022-09-10T01:47:21.034Z,1.55
2022-09-10T01:59:33.015Z,1.50
2022-09-10T02:10:44.637Z,1.77
2022-09-10T02:13:33.937Z,1.77
2022-09-10T02:22:04.276Z,1.70
2022-09-10T02:25:40.928Z,1.90
2022-09-10T02:28:51.350Z,1.60
2022-09-10T02:31:34.712Z,1.85
2022-09-10T02:35:39.033Z,1.85
2022-09-10T02:38:56.986Z,1.85
2022-09-10T02:42:28.323Z,1.88
2022-09-10T02:46:07.106Z,1.48
2022-09-10T02:49:55.261Z,1.90
2022-09-10T02:53:51.424Z,1.83
2022-09-10T02:57:18.201Z,1.80
2022-09-10T03:04:56.399Z,2.20
2022-09-10T03:11:03.372Z,1.67
2022-09-10T03:30:21.047Z,1.90
2022-09-10T03:33:18.606Z,1.75
2022-09-10T03:36:36.167Z,1.90
2022-09-10T03:44:03.296Z,1.90
2022-09-10T03:46:50.239Z,1.90
2022-09-10T03:50:03.815Z,1.80
2022-09-10T03:53:27.842Z,1.90
2022-09-10T03:59:59.334Z,1.95
2022-09-10T04:13:29.332Z,1.75
2022-09-10T04:16:32.124Z,2.00
2022-09-10T04:19:09.848Z,1.92
2022-09-10T04:21:51.289Z,1.98
2022-09-10T04:24:28.214Z,2.10
2022-09-10T04:27:48.143Z,1.77
2022-09-10T04:34:04.017Z,2.00
2022-09-10T04:37:08.126Z,1.80
2022-09-10T04:40:17.623Z,1.85
2022-09-10T04:47:34.681Z,2.00
2022-09-10T04:50:28.346Z,2.05
2022-09-10T04:53:39.594Z,2.17
2022-09-10T04:57:00.091Z,2.30
2022-09-10T04:59:43.292Z,2.00
2022-09-10T05:02:32.386Z,1.80
2022-09-10T05:05:28.618Z,1.85
2022-09-10T05:08:20.043Z,2.25
2022-09-10T05:11:41.278Z,2.05
2022-09-10T05:14:35.987Z,2.08
2022-09-10T05:17:30.326Z,2.00
2022-09-10T05:20:20.192Z,1.90
2022-09-10T05:23:28.381Z,2.00
2022-09-10T05:26:35.630Z,1.80
2022-09-10T05:29:39.127Z,1.98
2022-09-10T05:32:40.139Z,2.20
2022-09-10T05:35:47.361Z,1.95
2022-09-10T05:39:15.344Z,1.80
2022-09-10T05:42:12.223Z,1.90
2022-09-10T05:44:52.367Z,2.00
2022-09-10T05:47:32.673Z,1.88
2022-09-10T05:50:22.554Z,1.90
2022-09-10T05:52:53.896Z,1.90
2022-09-10T05:55:25.217Z,2.00
2022-09-10T05:57:58.629Z,1.90
2022-09-10T06:00:28.922Z,2.10
2022-09-10T06:03:02.711Z,2.08
2022-09-10T06:05:46.053Z,1.92
2022-09-10T06:08:17.971Z,1.90
2022-09-10T06:10:59.039Z,1.90
2022-09-10T06:13:38.146Z,2.00
2022-09-10T06:16:17.098Z,1.83
2022-09-10T06:19:00.290Z,2.00
2022-09-10T06:24:00.351Z,2.00
2022-09-10T06:26:35.407Z,2.10
2022-09-10T06:29:09.583Z,1.83
2022-09-10T06:31:42.432Z,1.85
2022-09-10T06:34:19.592Z,1.90
2022-09-10T06:36:54.075Z,1.92
2022-09-10T06:39:24.021Z,1.60
2022-09-10T06:42:00.477Z,1.83
2022-09-10T06:44:48.340Z,1.80
2022-09-10T06:50:24.010Z,2.10
2022-09-10T06:52:54.024Z,1.88
2022-09-10T06:55:27.793Z,1.70
2022-09-10T06:57:59.755Z,1.80
2022-09-10T07:00:32.712Z,2.00
2022-09-10T07:03:09.521Z,1.77
2022-09-10T07:05:39.871Z,1.83
2022-09-10T07:08:14.164Z,1.75
2022-09-10T07:10:47.431Z,1.90
2022-09-10T07:13:16.005Z,2.03
2022-09-10T07:15:50.253Z,2.10
2022-09-10T07:18:18.956Z,2.30
2022-09-10T07:20:47.745Z,2.00
2022-09-10T07:23:22.774Z,1.95
2022-09-10T07:25:54.125Z,1.88
2022-09-10T07:28:43.904Z,1.80
2022-09-10T07:31:23.198Z,1.85
2022-09-10T07:34:03.333Z,1.80
2022-09-10T07:36:32.053Z,2.05
2022-09-10T07:39:03.340Z,1.73
2022-09-10T07:41:35.770Z,1.90
2022-09-10T07:44:10.381Z,1.80
2022-09-10T07:46:43.246Z,1.80
2022-09-10T07:49:15.264Z,1.90
2022-09-10T07:51:46.970Z,1.80
2022-09-10T07:54:19.229Z,1.92
2022-09-10T07:56:53.952Z,1.80
2022-09-10T07:59:23.846Z,2.00
2022-09-10T08:01:58.242Z,2.00
2022-09-10T08:04:34.549Z,1.95
2022-09-10T08:07:20.112Z,1.85
2022-09-10T08:09:52.542Z,1.88
2022-09-10T08:12:23.701Z,1.98
2022-09-10T08:14:56.616Z,1.90
2022-09-10T08:17:27.585Z,1.70
2022-09-10T08:19:59.665Z,2.05
2022-09-10T08:22:32.273Z,1.88
2022-09-10T08:25:27.463Z,1.83
2022-09-10T08:27:59.252Z,1.88
2022-09-10T08:30:32.775Z,1.83
2022-09-10T08:33:04.426Z,1.80
2022-09-10T08:35:41.498Z,1.70
2022-09-10T08:38:24.217Z,1.70
2022-09-10T08:41:01.514Z,1.83
2022-09-10T08:43:38.364Z,1.80
2022-09-10T08:46:14.883Z,1.77
2022-09-10T08:48:46.324Z,2.20
2022-09-10T08:51:19.377Z,1.80
2022-09-10T08:54:03.130Z,1.90
2022-09-10T08:56:34.595Z,2.00
2022-09-10T08:59:14.670Z,1.90
2022-09-10T09:01:51.483Z,1.73
2022-09-10T09:04:44.514Z,2.00
2022-09-10T09:07:20.649Z,1.90
2022-09-10T09:09:57.479Z,1.88
2022-09-10T09:12:30.712Z,1.92
2022-09-10T09:15:20.563Z,1.88
2022-09-10T09:17:50.437Z,1.88
2022-09-10T09:20:32.044Z,1.90
2022-09-10T09:23:12.066Z,2.00
2022-09-10T09:25:47.870Z,2.05
2022-09-10T09:28:22.085Z,2.63
2022-09-10T09:30:52.784Z,1.88
2022-09-10T09:33:24.466Z,1.95
2022-09-10T09:35:58.790Z,2.08
2022-09-10T09:38:32.930Z,1.98
2022-09-10T09:41:07.371Z,2.00
2022-09-10T09:43:51.739Z,2.17
2022-09-10T09:46:22.810Z,2.00
2022-09-10T09:49:00.243Z,2.00
2022-09-10T09:51:35.903Z,2.00
2022-09-10T09:54:46.578Z,2.10
2022-09-10T09:56:59.999Z,2.00
2022-09-10T09:59:32.392Z,1.60
2022-09-10T10:02:14.068Z,2.20
2022-09-10T10:04:55.236Z,1.73
2022-09-10T10:07:38.508Z,1.90
2022-09-10T10:10:08.519Z,2.00
2022-09-10T10:12:46.302Z,1.88
2022-09-10T10:15:35.396Z,2.05
2022-09-10T10:18:24.645Z,2.00
2022-09-10T10:21:16.825Z,2.13
2022-09-10T10:23:47.762Z,1.90
2022-09-10T10:26:30.795Z,1.60
2022-09-10T10:29:07.313Z,2.03
2022-09-10T10:31:47.938Z,1.95
2022-09-10T10:34:24.607Z,1.92
2022-09-10T10:37:12.108Z,2.00
2022-09-10T10:39:46.926Z,1.92
2022-09-10T10:42:24.887Z,2.10
2022-09-10T10:44:57.479Z,1.80
2022-09-10T10:47:28.870Z,1.90
2022-09-10T10:50:03.915Z,2.05
2022-09-10T10:52:38.698Z,2.00
2022-09-10T10:55:14.094Z,2.28
2022-09-10T10:57:45.888Z,2.60
2022-09-10T11:00:15.558Z,2.50
2022-09-10T11:02:46.196Z,2.65
2022-09-10T11:05:17.974Z,2.50
2022-09-10T11:07:49.778Z,2.70
2022-09-10T11:10:24.686Z,2.47
2022-09-10T11:12:58.455Z,2.22
2022-09-10T11:15:30.346Z,2.30
2022-09-10T11:18:15.815Z,2.38
2022-09-10T11:20:51.654Z,2.22
2022-09-10T11:23:40.214Z,2.33
2022-09-10T11:26:33.258Z,2.80
2022-09-10T11:29:15.742Z,2.35
2022-09-10T11:31:52.499Z,2.47
2022-09-10T11:34:43.391Z,2.22
2022-09-10T11:37:19.831Z,2.42
2022-09-10T11:39:50.834Z,2.58
2022-09-10T11:42:48.691Z,2.60
2022-09-10T11:45:50.547Z,2.42
2022-09-10T11:48:19.715Z,2.30
2022-09-10T11:50:58.595Z,2.47
2022-09-10T11:53:35.611Z,2.08
2022-09-10T11:56:42.312Z,2.30
2022-09-10T11:59:25.765Z,2.13
2022-09-10T12:02:47.407Z,2.10
2022-09-10T12:05:35.359Z,2.38
2022-09-10T12:08:10.445Z,2.13
2022-09-10T12:10:43.462Z,2.20
2022-09-10T12:13:22.381Z,2.33
2022-09-10T12:15:54.025Z,2.03
2022-09-10T12:18:48.518Z,2.42
2022-09-10T12:21:28.730Z,1.70
2022-09-10T12:23:59.504Z,2.10
2022-09-10T12:26:28.062Z,2.38
2022-09-10T12:29:02.148Z,2.17
2022-09-10T12:31:50.420Z,2.10
2022-09-10T12:34:20.936Z,2.00
2022-09-10T12:36:52.401Z,2.08
2022-09-10T12:39:46.489Z,2.10
2022-09-10T12:42:30.543Z,2.00
2022-09-10T12:45:18.104Z,1.90
2022-09-10T12:47:52.098Z,1.90
2022-09-10T12:50:33.690Z,1.98
2022-09-10T12:53:28.449Z,2.00
2022-09-10T12:56:01.931Z,2.13
2022-09-10T12:58:50.827Z,2.00
2022-09-10T13:01:32.095Z,2.40
2022-09-10T13:04:03.656Z,2.10
2022-09-10T13:06:41.047Z,2.30
2022-09-10T13:09:28.076Z,2.45
2022-09-10T13:12:00.038Z,2.38
2022-09-10T13:14:31.419Z,2.25
2022-09-10T13:17:04.693Z,2.42
2022-09-10T13:19:35.127Z,2.40
2022-09-10T13:22:04.164Z,2.25
2022-09-10T13:24:42.181Z,2.50
2022-09-10T13:27:36.209Z,2.25
2022-09-10T13:30:21.637Z,2.20
2022-09-10T13:32:59.096Z,2.25
2022-09-10T13:35:48.238Z,2.45
2022-09-10T13:38:37.024Z,2.30
2022-09-10T13:41:16.825Z,2.40
2022-09-10T13:44:08.965Z,2.33
2022-09-10T13:46:51.670Z,2.42
2022-09-10T13:49:30.213Z,2.17
2022-09-10T13:54:38.948Z,2.40
2022-09-10T13:57:22.394Z,2.67
2022-09-10T13:59:54.012Z,2.17
2022-09-10T14:02:40.770Z,2.60
2022-09-10T14:05:29.229Z,2.50
2022-09-10T14:08:07.936Z,2.20
2022-09-10T14:10:50.644Z,2.15
2022-09-10T14:13:23.735Z,2.30
2022-09-10T14:15:55.962Z,2.35
2022-09-10T14:18:27.915Z,2.55
2022-09-10T14:20:56.161Z,2.45
2022-09-10T14:23:26.456Z,2.35
2022-09-10T14:26:10.684Z,2.40
2022-09-10T14:28:57.643Z,2.35
2022-09-10T14:31:44.844Z,2.20
2022-09-10T14:34:32.809Z,2.40
2022-09-10T14:37:26.059Z,2.30
2022-09-10T14:39:55.188Z,2.35
2022-09-10T14:42:32.024Z,2.40
2022-09-10T14:45:03.044Z,2.10
2022-09-10T14:47:39.092Z,2.75
2022-09-10T14:50:27.454Z,2.50
2022-09-10T14:52:56.016Z,2.28
2022-09-10T14:55:24.625Z,2.20
2022-09-10T14:57:56.430Z,2.28
2022-09-10T15:00:26.898Z,2.47
2022-09-10T15:03:02.734Z,2.65
2022-09-10T15:05:31.883Z,2.28
2022-09-10T15:08:00.667Z,2.25
2022-09-10T15:10:30.953Z,2.30
2022-09-10T15:13:00.300Z,2.42
2022-09-10T15:15:31.781Z,2.50
2022-09-10T15:18:00.109Z,2.40
2022-09-10T15:20:29.135Z,2.30
2022-09-10T15:22:58.802Z,2.63
2022-09-10T15:25:35.974Z,2.65
2022-09-10T15:28:10.132Z,2.50
2022-09-10T15:30:41.513Z,2.30
2022-09-10T15:33:16.447Z,2.20
2022-09-10T15:35:46.267Z,2.33
2022-09-10T15:38:16.092Z,2.63
2022-09-10T15:40:48.553Z,2.42
2022-09-10T15:43:23.266Z,2.30
2022-09-10T15:45:52.021Z,2.15
2022-09-10T15:48:20.226Z,2.50
2022-09-10T15:50:51.253Z,2.60
2022-09-10T15:53:22.408Z,2.70
2022-09-10T15:55:51.474Z,2.47
2022-09-10T15:58:20.782Z,2.40
2022-09-10T16:00:50.272Z,2.40
2022-09-10T16:03:21.831Z,2.53
2022-09-10T16:05:50.738Z,2.40
2022-09-10T16:08:20.016Z,2.33
2022-09-10T16:10:49.253Z,2.40
2022-09-10T16:13:18.537Z,2.50
2022-09-10T16:16:00.314Z,2.63
2022-09-10T16:18:30.967Z,2.35
2022-09-10T16:25:59.539Z,2.38
2022-09-10T16:28:32.409Z,2.50
2022-09-10T16:31:16.456Z,2.50
2022-09-10T16:33:49.835Z,2.35
2022-09-10T16:36:23.669Z,2.10
2022-09-10T16:38:54.398Z,2.33
2022-09-10T16:41:24.651Z,2.47
2022-09-10T16:43:59.350Z,2.40
2022-09-10T16:46:29.067Z,2.33
2022-09-10T16:49:00.339Z,2.60
2022-09-10T16:51:33.946Z,2.40
2022-09-10T16:54:04.024Z,2.50
2022-09-10T16:56:39.894Z,2.60
2022-09-10T16:59:15.491Z,2.25
2022-09-10T17:01:45.447Z,2.78
2022-09-10T17:04:19.748Z,2.30
2022-09-10T17:06:51.397Z,2.42
2022-09-10T17:09:20.897Z,2.35
2022-09-10T17:11:50.230Z,2.60
2022-09-10T17:14:18.515Z,2.42
2022-09-10T17:17:00.108Z,2.50
2022-09-10T17:19:34.913Z,2.40
2022-09-10T17:22:04.581Z,2.50
2022-09-10T17:24:33.477Z,2.60
2022-09-10T17:27:04.235Z,2.70
2022-09-10T17:29:34.670Z,2.50
2022-09-10T17:32:03.490Z,2.40
2022-09-10T17:34:32.111Z,2.67
2022-09-10T17:37:03.158Z,2.42
2022-09-10T17:39:32.223Z,2.50
2022-09-10T17:42:04.637Z,2.42
2022-09-10T17:44:34.672Z,2.58
2022-09-10T17:47:03.495Z,2.58
2022-09-10T17:49:34.691Z,2.45
2022-09-10T17:52:06.672Z,2.42
2022-09-10T17:54:36.791Z,2.67
2022-09-10T17:57:13.801Z,2.50
2022-09-10T18:00:02.621Z,2.70
2022-09-10T18:02:32.479Z,2.65
2022-09-10T18:05:02.584Z,2.78
2022-09-10T18:07:32.132Z,2.67
2022-09-10T18:10:04.243Z,2.30
2022-09-10T18:12:32.788Z,2.75
2022-09-10T18:15:02.325Z,2.60
2022-09-10T18:17:34.743Z,2.45
2022-09-10T18:20:04.610Z,2.53
2022-09-10T18:22:34.731Z,2.40
2022-09-10T18:25:03.422Z,2.53
2022-09-10T18:27:32.190Z,2.65
2022-09-10T18:30:02.661Z,2.72
2022-09-10T18:32:32.310Z,2.70
2022-09-10T18:35:02.067Z,2.50
2022-09-10T18:37:31.177Z,2.50
2022-09-10T18:40:00.030Z,2.55
2022-09-10T18:42:29.008Z,2.30
2022-09-10T18:44:58.286Z,2.50
2022-09-10T18:47:44.060Z,2.08
2022-09-10T18:50:14.348Z,2.42
2022-09-10T18:52:44.027Z,2.60
2022-09-10T18:55:13.415Z,2.85
2022-09-10T18:57:42.511Z,2.60
2022-09-10T19:00:13.575Z,2.60
2022-09-10T19:02:43.588Z,2.60
2022-09-10T19:05:13.465Z,2.40
2022-09-10T19:07:42.976Z,2.60
2022-09-10T19:10:12.338Z,2.60
2022-09-10T19:12:42.360Z,2.40
2022-09-10T19:15:14.124Z,2.75
2022-09-10T19:17:45.889Z,2.35
2022-09-10T19:20:18.801Z,2.30
2022-09-10T19:22:48.068Z,2.35
2022-09-10T19:25:17.634Z,2.47
2022-09-10T19:27:46.156Z,2.42
2022-09-10T19:30:15.940Z,2.55
2022-09-10T19:32:45.318Z,2.40
2022-09-10T19:35:15.824Z,2.80
2022-09-10T19:37:48.006Z,2.80
2022-09-10T19:40:16.141Z,2.50
2022-09-10T19:42:47.156Z,2.70
2022-09-10T19:45:17.144Z,2.47
2022-09-10T19:47:46.282Z,2.50
2022-09-10T19:50:17.547Z,2.67
2022-09-10T19:52:55.788Z,2.70
2022-09-10T19:57:56.110Z,2.50
2022-09-10T20:00:45.946Z,2.60
2022-09-10T20:03:17.507Z,2.83
2022-09-10T20:05:47.921Z,2.67
2022-09-10T20:08:16.679Z,2.50
2022-09-10T20:10:53.046Z,2.60
2022-09-10T20:13:34.388Z,2.47
2022-09-10T20:16:22.527Z,2.60
2022-09-10T20:19:04.237Z,2.53
2022-09-10T20:21:33.168Z,2.55
2022-09-10T20:24:03.293Z,2.40
2022-09-10T20:26:52.560Z,2.53
2022-09-10T20:29:26.266Z,2.28
2022-09-10T20:31:59.916Z,2.30
2022-09-10T20:34:39.922Z,2.58
2022-09-10T20:37:26.146Z,2.80
2022-09-10T20:40:10.410Z,2.50
2022-09-10T20:42:54.490Z,2.30
2022-09-10T20:45:31.937Z,2.22
2022-09-10T20:48:09.681Z,2.60
2022-09-10T20:50:53.294Z,2.40
2022-09-10T20:53:29.039Z,2.17
2022-09-10T20:56:07.871Z,2.50
2022-09-10T20:58:39.725Z,2.58
2022-09-10T21:01:24.320Z,2.40
2022-09-10T21:03:55.371Z,2.63
2022-09-10T21:06:32.844Z,2.40
2022-09-10T21:09:05.110Z,2.33
2022-09-10T21:11:36.834Z,2.15
2022-09-10T21:14:17.142Z,2.50
2022-09-10T21:16:47.928Z,2.35
2022-09-10T21:19:20.545Z,2.40
2022-09-10T21:22:23.661Z,2.20
2022-09-10T21:24:54.990Z,2.10
2022-09-10T21:27:31.325Z,2.42
2022-09-10T21:31:19.574Z,2.67
2022-09-10T21:34:04.617Z,2.40
2022-09-10T21:36:38.784Z,2.70
2022-09-10T21:39:40.094Z,2.70
2022-09-10T21:42:16.052Z,2.40
2022-09-10T21:44:50.494Z,2.40
2022-09-10T21:47:19.164Z,2.75
2022-09-10T21:49:49.856Z,2.70
2022-09-10T21:52:20.049Z,2.90
2022-09-10T21:55:02.956Z,2.75
2022-09-10T21:57:32.623Z,2.42
2022-09-10T22:00:03.208Z,3.00
2022-09-10T22:03:06.296Z,2.53
2022-09-10T22:05:36.966Z,2.20
2022-09-10T22:08:18.346Z,2.50
2022-09-10T22:10:48.662Z,2.25
2022-09-10T22:13:24.473Z,2.53
2022-09-10T22:15:56.000Z,3.13
2022-09-10T22:18:28.039Z,3.10
2022-09-10T22:21:03.642Z,3.10
2022-09-10T22:23:34.083Z,2.53
2022-09-10T22:26:18.779Z,2.72
2022-09-10T22:28:53.132Z,2.40
2022-09-10T22:31:43.893Z,2.35
2022-09-10T22:34:20.435Z,2.35
2022-09-10T22:36:59.653Z,2.28
2022-09-10T22:39:35.693Z,2.50
2022-09-10T22:45:13.222Z,2.15
2022-09-10T22:47:49.141Z,2.22
2022-09-10T22:50:23.492Z,2.05
2022-09-10T22:52:51.961Z,2.30
2022-09-10T22:55:22.814Z,2.50
2022-09-10T22:57:56.648Z,2.25
2022-09-10T23:00:27.419Z,2.50
2022-09-10T23:03:04.635Z,2.28
2022-09-10T23:05:51.521Z,2.40
2022-09-10T23:09:04.227Z,2.67
2022-09-10T23:11:33.197Z,2.10
2022-09-10T23:14:06.569Z,2.28
2022-09-10T23:16:40.482Z,2.30
2022-09-10T23:19:15.890Z,2.30
2022-09-10T23:21:50.504Z,2.25
2022-09-10T23:24:20.939Z,2.38
2022-09-10T23:27:02.396Z,2.45
2022-09-10T23:29:32.565Z,2.30
2022-09-10T23:32:49.060Z,2.13
2022-09-10T23:35:23.015Z,2.20
2022-09-10T23:37:53.127Z,2.10
2022-09-10T23:40:27.930Z,2.38
2022-09-10T23:42:59.688Z,2.33
2022-09-10T23:45:28.556Z,2.15
2022-09-10T23:47:59.640Z,2.30
2022-09-10T23:50:30.573Z,2.22
2022-09-10T23:53:01.240Z,2.30
2022-09-10T23:55:34.760Z,2.28
2022-09-10T23:58:05.247Z,2.30
